Cullen, Virginia
Current Conditions -  °F | °C
As of 12:15 PM on Sunday 23 Nov 2014 (Local Time) from KFVX Reporting Station
Overcast Overcast  
Wind Chill: 53°   Ceiling: 1200
Heat Index: 53°   Visibility: 10mi
Dew Point: 26°   Wind: 0mph
Humidity: 34%   Direction: NA
Pressure: 30.16"   Gusts: NA
Location:  37.12°N, 78.65°W
Report Text: KFVX 231715Z AUTO 00000KT 10SM OVC012 12/M04 A3016 RMK AO2 T01171036
Loading
Personal Weather Stations






























Interactive Weather Map New forecast layout! Learn more

10-Day Weather Forecast

Advertisements
Track Severe Weather on mobile